createdAt,value
2023-04-09T00:01:25.365Z,9.15
2023-04-09T00:03:52.394Z,8.88
2023-04-09T00:06:25.056Z,9.38
2023-04-09T00:08:55.712Z,9.00
2023-04-09T00:11:23.640Z,9.90
2023-04-09T00:14:08.723Z,9.45
2023-04-09T00:17:05.379Z,10.18
2023-04-09T00:19:38.213Z,8.95
2023-04-09T00:22:18.095Z,7.45
2023-04-09T00:24:47.718Z,9.60
2023-04-09T00:27:19.783Z,8.77
2023-04-09T00:29:56.001Z,8.90
2023-04-09T00:32:41.589Z,7.88
2023-04-09T00:35:22.421Z,7.65
2023-04-09T00:37:49.609Z,7.55
2023-04-09T00:40:21.707Z,7.45
2023-04-09T00:42:55.810Z,6.40
2023-04-09T00:45:22.700Z,6.53
2023-04-09T00:48:08.838Z,6.30
2023-04-09T00:50:48.737Z,6.40
2023-04-09T00:53:19.021Z,6.40
2023-04-09T00:55:48.903Z,6.10
2023-04-09T00:58:16.108Z,6.20
2023-04-09T01:00:46.604Z,6.22
2023-04-09T01:03:16.631Z,6.32
2023-04-09T01:06:02.518Z,6.22
2023-04-09T01:08:58.674Z,6.60
2023-04-09T01:11:49.937Z,6.50
2023-04-09T01:14:31.987Z,7.10
2023-04-09T01:17:17.188Z,6.47
2023-04-09T01:19:58.510Z,6.75
2023-04-09T01:22:35.955Z,7.40
2023-04-09T01:25:25.709Z,6.72
2023-04-09T01:28:11.275Z,7.18
2023-04-09T01:30:42.264Z,6.85
2023-04-09T01:33:16.990Z,7.05
2023-04-09T01:35:46.258Z,7.13
2023-04-09T01:38:21.696Z,6.85
2023-04-09T01:41:06.594Z,7.07
2023-04-09T01:43:46.227Z,7.55
2023-04-09T01:46:13.974Z,8.43
2023-04-09T01:48:41.285Z,7.70
2023-04-09T01:51:34.828Z,7.57
2023-04-09T01:54:13.327Z,8.48
2023-04-09T01:56:48.733Z,7.93
2023-04-09T01:59:16.213Z,8.43
2023-04-09T02:01:52.439Z,8.35
2023-04-09T02:04:31.346Z,8.35
2023-04-09T02:07:12.487Z,8.10
2023-04-09T02:09:47.718Z,7.88
2023-04-09T02:12:41.050Z,8.93
2023-04-09T02:15:08.715Z,8.70
2023-04-09T02:17:38.502Z,8.60
2023-04-09T02:20:05.907Z,9.20
2023-04-09T02:22:59.662Z,9.30
2023-04-09T02:28:07.932Z,8.25
2023-04-09T02:30:34.873Z,8.98
2023-04-09T02:33:20.181Z,8.90
2023-04-09T02:35:54.324Z,9.18
2023-04-09T02:38:24.172Z,9.55
2023-04-09T02:40:51.045Z,8.98
2023-04-09T02:43:24.261Z,7.63
2023-04-09T02:45:51.072Z,4.88
2023-04-09T02:48:33.697Z,5.05
2023-04-09T02:51:51.031Z,8.05
2023-04-09T02:55:00.815Z,8.07
2023-04-09T02:57:28.493Z,8.02
2023-04-09T02:59:55.984Z,7.95
2023-04-09T03:02:27.659Z,9.00
2023-04-09T03:07:44.747Z,6.18
2023-04-09T03:10:24.959Z,7.78
2023-04-09T03:13:04.184Z,8.18
2023-04-09T03:15:51.939Z,5.53
2023-04-09T03:18:28.857Z,7.97
2023-04-09T03:20:55.895Z,8.02
2023-04-09T03:23:22.827Z,5.35
2023-04-09T03:26:01.134Z,7.90
2023-04-09T03:28:31.509Z,5.88
2023-04-09T03:31:01.423Z,4.95
2023-04-09T03:33:28.341Z,7.68
2023-04-09T03:35:55.327Z,6.95
2023-04-09T03:38:22.905Z,7.97
2023-04-09T03:40:55.278Z,7.60
2023-04-09T03:43:58.969Z,7.60
2023-04-09T03:46:27.417Z,8.05
2023-04-09T03:48:54.571Z,7.57
2023-04-09T03:51:35.062Z,8.02
2023-04-09T03:54:16.863Z,5.55
2023-04-09T03:56:57.284Z,6.30
2023-04-09T03:59:24.726Z,7.53
2023-04-09T04:02:00.278Z,7.85
2023-04-09T04:04:30.250Z,5.85
2023-04-09T04:07:11.798Z,7.93
2023-04-09T04:09:38.898Z,7.78
2023-04-09T04:12:10.424Z,5.15
2023-04-09T04:14:42.618Z,7.15
2023-04-09T04:17:12.258Z,5.65
2023-04-09T04:19:41.911Z,7.32
2023-04-09T04:22:08.883Z,7.78
2023-04-09T04:24:54.367Z,7.38
2023-04-09T04:27:32.579Z,6.65
2023-04-09T04:30:11.780Z,7.68
2023-04-09T04:32:49.656Z,6.85
2023-04-09T04:35:34.437Z,7.90
2023-04-09T04:38:07.372Z,7.50
2023-04-09T04:40:35.823Z,6.97
2023-04-09T04:43:19.295Z,7.93
2023-04-09T04:45:59.935Z,6.95
2023-04-09T04:48:34.371Z,7.32
2023-04-09T04:51:05.922Z,7.47
2023-04-09T04:53:38.890Z,7.43
2023-04-09T04:56:21.316Z,7.75
2023-04-09T04:58:48.351Z,7.90
2023-04-09T05:01:21.998Z,7.97
2023-04-09T05:03:50.847Z,7.68
2023-04-09T05:06:23.562Z,8.00
2023-04-09T05:08:50.861Z,8.45
2023-04-09T05:11:21.505Z,8.70
2023-04-09T05:13:51.732Z,8.02
2023-04-09T05:16:20.334Z,8.07
2023-04-09T05:18:47.942Z,7.97
2023-04-09T05:21:20.713Z,7.55
2023-04-09T05:23:48.066Z,7.22
2023-04-09T05:26:17.078Z,6.45
2023-04-09T05:28:44.080Z,7.55
2023-04-09T05:31:16.002Z,7.03
2023-04-09T05:33:48.482Z,6.88
2023-04-09T05:38:49.719Z,6.85
2023-04-09T05:41:23.828Z,6.97
2023-04-09T05:44:00.825Z,7.07
2023-04-09T05:46:45.697Z,7.53
2023-04-09T05:49:23.216Z,7.30
2023-04-09T05:51:56.402Z,7.35
2023-04-09T05:54:34.148Z,7.18
2023-04-09T05:57:17.279Z,7.43
2023-04-09T05:59:44.365Z,6.60
2023-04-09T06:02:20.430Z,7.32
2023-04-09T06:04:54.408Z,7.38
2023-04-09T06:07:22.905Z,7.50
2023-04-09T06:09:50.005Z,7.05
2023-04-09T06:12:28.357Z,7.75
2023-04-09T06:14:55.204Z,7.28
2023-04-09T06:17:22.140Z,7.57
2023-04-09T06:19:52.286Z,7.38
2023-04-09T06:22:22.162Z,6.68
2023-04-09T06:24:54.565Z,6.93
2023-04-09T06:27:24.307Z,7.60
2023-04-09T06:29:54.308Z,7.38
2023-04-09T06:32:24.469Z,7.60
2023-04-09T06:34:54.440Z,7.68
2023-04-09T06:37:24.460Z,6.53
2023-04-09T06:40:01.116Z,7.13
2023-04-09T06:42:35.405Z,7.50
2023-04-09T06:45:12.213Z,7.38
2023-04-09T06:47:39.274Z,7.85
2023-04-09T06:50:10.916Z,6.30
2023-04-09T06:52:43.819Z,7.23
2023-04-09T06:55:11.060Z,7.70
2023-04-09T06:57:56.055Z,6.10
2023-04-09T07:00:36.500Z,7.68
2023-04-09T07:03:09.563Z,8.27
2023-04-09T07:05:36.895Z,5.13
2023-04-09T07:08:04.480Z,4.65
2023-04-09T07:10:34.301Z,8.00
2023-04-09T07:13:01.341Z,8.63
2023-04-09T07:15:30.725Z,6.95
2023-04-09T07:17:59.678Z,5.65
2023-04-09T07:20:29.638Z,9.80
2023-04-09T07:22:56.612Z,6.38
2023-04-09T07:25:23.640Z,7.97
2023-04-09T07:30:54.793Z,6.40
2023-04-09T07:33:24.839Z,8.18
2023-04-09T07:35:53.256Z,8.57
2023-04-09T07:38:26.156Z,8.20
2023-04-09T07:40:55.088Z,8.30
2023-04-09T07:43:22.772Z,8.20
2023-04-09T07:45:52.803Z,5.90
2023-04-09T07:48:22.630Z,7.40
2023-04-09T07:50:53.043Z,6.65
2023-04-09T07:53:20.164Z,7.13
2023-04-09T07:55:47.166Z,6.90
2023-04-09T07:58:14.143Z,6.78
2023-04-09T08:00:41.246Z,6.18
2023-04-09T08:03:18.187Z,5.40
2023-04-09T08:05:52.259Z,6.20
2023-04-09T08:08:21.181Z,5.50
2023-04-09T08:11:04.279Z,5.30
2023-04-09T08:13:40.978Z,5.18
2023-04-09T08:16:21.764Z,5.03
2023-04-09T08:18:57.540Z,5.30
2023-04-09T08:21:36.570Z,4.78
2023-04-09T08:24:05.368Z,5.82
2023-04-09T08:26:32.305Z,7.15
2023-04-09T08:28:59.620Z,6.18
2023-04-09T08:31:43.028Z,4.75
2023-04-09T08:34:15.044Z,4.82
2023-04-09T08:37:07.707Z,5.40
2023-04-09T08:39:37.695Z,6.53
2023-04-09T08:42:19.999Z,5.13
2023-04-09T08:44:56.622Z,6.97
2023-04-09T08:47:24.369Z,5.97
2023-04-09T08:49:54.426Z,6.32
2023-04-09T08:52:54.542Z,6.07
2023-04-09T08:55:34.040Z,5.10
2023-04-09T08:58:34.469Z,6.78
2023-04-09T09:01:02.105Z,5.20
2023-04-09T09:03:29.049Z,5.20
2023-04-09T09:05:56.019Z,5.00
2023-04-09T09:08:46.656Z,4.85
2023-04-09T09:11:35.754Z,5.43
2023-04-09T09:14:34.835Z,5.45
2023-04-09T09:17:12.783Z,5.13
2023-04-09T09:19:54.045Z,6.03
2023-04-09T09:22:21.213Z,4.57
2023-04-09T09:25:03.506Z,5.03
2023-04-09T09:27:43.918Z,4.63
2023-04-09T09:30:22.190Z,5.15
2023-04-09T09:32:52.977Z,4.20
2023-04-09T09:35:39.897Z,4.50
2023-04-09T09:38:19.627Z,4.63
2023-04-09T09:40:50.530Z,4.88
2023-04-09T09:43:17.690Z,4.43
2023-04-09T09:45:50.114Z,5.38
2023-04-09T09:51:19.848Z,4.50
2023-04-09T09:53:57.808Z,4.03
2023-04-09T09:56:32.878Z,4.13
2023-04-09T09:59:04.244Z,4.32
2023-04-09T10:01:40.190Z,4.28
2023-04-09T10:04:16.273Z,3.83
2023-04-09T10:06:57.081Z,3.92
2023-04-09T10:09:31.678Z,3.90
2023-04-09T10:12:04.498Z,4.00
2023-04-09T10:14:41.874Z,4.95
2023-04-09T10:17:25.058Z,3.70
2023-04-09T10:20:16.286Z,3.58
2023-04-09T10:22:45.398Z,3.88
2023-04-09T10:25:21.142Z,3.00
2023-04-09T10:28:00.601Z,2.47
2023-04-09T10:30:35.219Z,2.85
2023-04-09T10:33:26.751Z,3.17
2023-04-09T10:35:56.954Z,3.08
2023-04-09T10:38:47.448Z,2.20
2023-04-09T10:41:25.598Z,3.03
2023-04-09T10:44:05.529Z,2.60
2023-04-09T10:46:52.518Z,2.75
2023-04-09T10:49:27.359Z,2.40
2023-04-09T10:52:18.344Z,2.35
2023-04-09T10:54:52.666Z,2.47
2023-04-09T10:57:21.778Z,2.20
2023-04-09T10:59:53.643Z,2.03
2023-04-09T11:02:39.658Z,2.03
2023-04-09T11:08:29.459Z,2.30
2023-04-09T11:10:58.780Z,2.10
2023-04-09T11:13:25.874Z,1.90
2023-04-09T11:15:57.210Z,2.10
2023-04-09T11:18:27.113Z,1.98
2023-04-09T11:21:08.711Z,1.90
2023-04-09T11:23:35.866Z,2.20
2023-04-09T11:26:03.136Z,1.90
2023-04-09T11:28:41.355Z,1.80
2023-04-09T11:31:08.400Z,1.80
2023-04-09T11:33:35.689Z,1.92
2023-04-09T11:36:18.823Z,1.70
2023-04-09T11:38:49.773Z,1.80
2023-04-09T11:41:16.907Z,2.17
2023-04-09T11:43:44.047Z,1.73
2023-04-09T11:46:11.512Z,1.77
2023-04-09T11:48:38.677Z,1.80
2023-04-09T11:51:07.637Z,1.90
2023-04-09T11:53:38.099Z,1.60
2023-04-09T11:56:07.110Z,1.70
2023-04-09T11:58:36.998Z,1.70
2023-04-09T12:01:04.084Z,1.90
2023-04-09T12:03:33.679Z,1.48
2023-04-09T12:06:09.508Z,1.55
2023-04-09T12:08:39.548Z,1.60
2023-04-09T12:11:19.466Z,1.60
2023-04-09T12:13:59.064Z,1.63
2023-04-09T12:16:26.142Z,1.80
2023-04-09T12:18:56.084Z,1.77
2023-04-09T12:21:27.565Z,1.75
2023-04-09T12:24:06.222Z,1.63
2023-04-09T12:26:33.160Z,2.10
2023-04-09T12:29:16.921Z,1.80
2023-04-09T12:31:53.037Z,2.55
2023-04-09T12:34:34.582Z,1.90
2023-04-09T12:37:06.400Z,2.00
2023-04-09T12:39:37.645Z,2.30
2023-04-09T12:42:09.732Z,1.88
2023-04-09T12:44:49.629Z,2.15
2023-04-09T12:47:19.522Z,1.92
2023-04-09T12:49:47.119Z,2.40
2023-04-09T12:52:14.208Z,2.42
2023-04-09T12:54:41.217Z,2.20
2023-04-09T12:57:08.267Z,2.65
2023-04-09T12:59:37.707Z,2.40
2023-04-09T13:02:04.790Z,2.33
2023-04-09T13:04:32.217Z,2.53
2023-04-09T13:07:10.931Z,2.83
2023-04-09T13:09:42.196Z,2.40
2023-04-09T13:12:09.172Z,2.47
2023-04-09T13:14:36.815Z,2.50
2023-04-09T13:17:05.146Z,2.30
2023-04-09T13:19:43.752Z,2.35
2023-04-09T13:22:33.699Z,2.42
2023-04-09T13:25:00.977Z,2.03
2023-04-09T13:27:27.863Z,2.55
2023-04-09T13:29:54.785Z,2.22
2023-04-09T13:32:23.558Z,2.08
2023-04-09T13:35:18.589Z,2.60
2023-04-09T13:37:45.739Z,2.47
2023-04-09T13:40:13.341Z,2.50
2023-04-09T13:42:43.786Z,2.50
2023-04-09T13:45:10.944Z,2.22
2023-04-09T13:47:41.467Z,2.10
2023-04-09T13:50:13.331Z,2.20
2023-04-09T13:52:40.315Z,2.20
2023-04-09T13:55:08.038Z,2.13
2023-04-09T13:57:35.043Z,2.03
2023-04-09T14:00:04.785Z,2.00
2023-04-09T14:02:32.627Z,1.98
2023-04-09T14:05:04.172Z,2.30
2023-04-09T14:07:31.251Z,2.03
2023-04-09T14:10:09.070Z,1.98
2023-04-09T14:12:36.287Z,2.17
2023-04-09T14:15:11.877Z,1.85
2023-04-09T14:17:49.835Z,2.05
2023-04-09T14:20:16.886Z,2.10
2023-04-09T14:22:49.360Z,2.25
2023-04-09T14:25:17.136Z,1.92
2023-04-09T14:27:43.972Z,1.90
2023-04-09T14:30:13.273Z,1.90
2023-04-09T14:32:42.563Z,1.98
2023-04-09T14:35:09.904Z,1.70
2023-04-09T14:37:41.862Z,1.88
2023-04-09T14:40:12.139Z,1.80
2023-04-09T14:42:40.050Z,1.80
2023-04-09T14:45:14.344Z,2.15
2023-04-09T14:47:42.397Z,1.77
2023-04-09T14:50:10.589Z,1.85
2023-04-09T14:52:37.516Z,2.00
2023-04-09T14:55:04.865Z,2.22
2023-04-09T14:57:31.885Z,1.83
2023-04-09T15:00:05.204Z,2.00
2023-04-09T15:02:39.705Z,1.92
2023-04-09T15:05:10.412Z,2.10
2023-04-09T15:07:37.347Z,1.60
2023-04-09T15:10:04.339Z,1.85
2023-04-09T15:12:38.973Z,1.70
2023-04-09T15:15:07.633Z,1.60
2023-04-09T15:17:34.689Z,1.70
2023-04-09T15:20:01.690Z,1.73
2023-04-09T15:22:28.656Z,1.55
2023-04-09T15:24:57.870Z,1.50
2023-04-09T15:27:26.535Z,1.80
2023-04-09T15:29:58.435Z,1.52
2023-04-09T15:32:34.060Z,1.50
2023-04-09T15:35:35.149Z,1.55
2023-04-09T15:38:50.998Z,1.60
2023-04-09T15:41:18.362Z,1.60
2023-04-09T15:43:58.998Z,1.55
2023-04-09T15:46:34.651Z,1.48
2023-04-09T15:49:12.058Z,1.50
2023-04-09T15:51:53.924Z,1.40
2023-04-09T15:54:20.952Z,1.60
2023-04-09T15:56:47.976Z,1.45
2023-04-09T15:59:14.848Z,1.70
2023-04-09T16:01:44.904Z,1.75
2023-04-09T16:04:11.839Z,1.60
2023-04-09T16:06:39.661Z,1.70
2023-04-09T16:09:06.632Z,1.50
2023-04-09T16:11:39.633Z,1.50
2023-04-09T16:14:09.618Z,1.70
2023-04-09T16:16:37.153Z,1.60
2023-04-09T16:19:04.141Z,1.30
2023-04-09T16:21:31.583Z,1.50
2023-04-09T16:23:58.470Z,1.73
2023-04-09T16:26:25.327Z,1.67
2023-04-09T16:28:53.642Z,1.30
2023-04-09T16:31:20.740Z,1.50
2023-04-09T16:33:49.032Z,1.58
2023-04-09T16:36:16.043Z,1.45
2023-04-09T16:38:42.944Z,1.42
2023-04-09T16:41:15.387Z,1.55
2023-04-09T16:46:12.446Z,1.50
2023-04-09T16:48:49.854Z,1.30
2023-04-09T16:51:17.325Z,1.42
2023-04-09T16:53:44.247Z,1.80
2023-04-09T16:56:11.130Z,1.55
2023-04-09T16:58:39.312Z,1.50
2023-04-09T17:04:26.758Z,1.48
2023-04-09T17:09:55.099Z,1.77
2023-04-09T17:12:25.848Z,1.70
2023-04-09T17:15:08.171Z,1.25
2023-04-09T17:17:42.988Z,1.88
2023-04-09T17:20:10.767Z,1.48
2023-04-09T17:22:40.434Z,1.48
2023-04-09T17:25:10.989Z,1.70
2023-04-09T17:27:53.091Z,1.60
2023-04-09T17:30:23.067Z,1.73
2023-04-09T17:32:53.368Z,1.60
2023-04-09T17:35:20.816Z,1.70
2023-04-09T17:37:51.198Z,1.50
2023-04-09T17:40:47.448Z,1.50
2023-04-09T17:43:14.758Z,1.40
2023-04-09T17:45:57.597Z,1.60
2023-04-09T17:48:27.923Z,1.63
2023-04-09T17:50:55.970Z,1.83
2023-04-09T17:53:26.153Z,1.90
2023-04-09T17:56:03.385Z,1.50
2023-04-09T17:58:30.493Z,1.58
2023-04-09T18:01:01.967Z,1.67
2023-04-09T18:03:31.679Z,1.73
2023-04-09T18:06:01.919Z,1.58
2023-04-09T18:08:32.298Z,1.85
2023-04-09T18:11:13.972Z,2.28
2023-04-09T18:13:43.436Z,2.03
2023-04-09T18:16:12.748Z,1.52
2023-04-09T18:18:45.305Z,2.20
2023-04-09T18:23:43.378Z,1.90
2023-04-09T18:26:14.795Z,2.30
2023-04-09T18:28:42.327Z,2.00
2023-04-09T18:31:21.314Z,2.00
2023-04-09T18:33:49.980Z,2.05
2023-04-09T18:36:39.468Z,2.15
2023-04-09T18:39:15.269Z,1.95
2023-04-09T18:41:50.515Z,2.17
2023-04-09T18:44:26.300Z,2.40
2023-04-09T18:46:59.495Z,2.38
2023-04-09T18:49:31.023Z,2.30
2023-04-09T18:51:58.252Z,2.30
2023-04-09T18:54:26.171Z,2.20
2023-04-09T18:56:53.170Z,2.35
2023-04-09T18:59:20.147Z,2.20
2023-04-09T19:01:56.085Z,1.90
2023-04-09T19:04:33.785Z,1.92
2023-04-09T19:07:04.766Z,2.17
2023-04-09T19:09:35.194Z,2.10
2023-04-09T19:12:02.290Z,1.92
2023-04-09T19:14:32.371Z,2.58
2023-04-09T19:17:03.397Z,2.47
2023-04-09T19:19:30.379Z,2.00
2023-04-09T19:22:03.838Z,2.45
2023-04-09T19:24:34.846Z,2.40
2023-04-09T19:27:12.909Z,2.17
2023-04-09T19:29:42.057Z,2.22
2023-04-09T19:32:23.128Z,2.55
2023-04-09T19:35:01.957Z,2.30
2023-04-09T19:37:31.251Z,2.88
2023-04-09T19:40:23.539Z,1.92
2023-04-09T19:42:56.628Z,2.38
2023-04-09T19:45:27.360Z,2.38
2023-04-09T19:50:43.091Z,2.10
2023-04-09T19:53:11.023Z,2.60
2023-04-09T19:55:47.002Z,2.50
2023-04-09T19:58:13.968Z,2.00
2023-04-09T20:00:47.086Z,2.30
2023-04-09T20:03:23.451Z,2.10
2023-04-09T20:05:50.820Z,2.40
2023-04-09T20:08:20.774Z,2.50
2023-04-09T20:10:49.307Z,2.40
2023-04-09T20:13:16.204Z,2.55
2023-04-09T20:15:48.281Z,2.40
2023-04-09T20:18:19.386Z,2.03
2023-04-09T20:20:46.455Z,2.20
2023-04-09T20:26:13.404Z,2.28
2023-04-09T20:29:01.054Z,2.33
2023-04-09T20:31:39.574Z,2.65
2023-04-09T20:34:15.834Z,2.20
2023-04-09T20:36:53.903Z,2.33
2023-04-09T20:39:40.314Z,2.60
2023-04-09T20:42:08.339Z,2.50
2023-04-09T20:44:45.049Z,2.40
2023-04-09T20:47:12.329Z,2.42
2023-04-09T20:49:40.407Z,2.80
2023-04-09T20:52:19.372Z,2.63
2023-04-09T20:54:56.517Z,2.90
2023-04-09T20:57:35.279Z,2.60
2023-04-09T21:00:11.570Z,2.33
2023-04-09T21:02:44.611Z,2.38
2023-04-09T21:05:22.419Z,2.60
2023-04-09T21:07:51.257Z,2.50
2023-04-09T21:10:21.335Z,2.30
2023-04-09T21:13:01.465Z,2.55
2023-04-09T21:15:49.841Z,2.75
2023-04-09T21:18:24.129Z,3.17
2023-04-09T21:21:00.054Z,3.00
2023-04-09T21:23:45.404Z,3.00
2023-04-09T21:26:12.920Z,2.28
2023-04-09T21:28:42.938Z,2.70
2023-04-09T21:31:14.175Z,2.28
2023-04-09T21:33:41.299Z,2.40
2023-04-09T21:36:14.352Z,2.55
2023-04-09T21:38:41.271Z,2.42
2023-04-09T21:41:11.338Z,2.28
2023-04-09T21:43:46.408Z,2.17
2023-04-09T21:46:16.506Z,2.63
2023-04-09T21:48:53.721Z,2.47
2023-04-09T21:51:20.880Z,2.45
2023-04-09T21:54:02.467Z,2.58
2023-04-09T21:56:31.670Z,5.35
2023-04-09T21:59:09.967Z,4.60
2023-04-09T22:01:36.977Z,2.40
2023-04-09T22:04:07.811Z,2.40
2023-04-09T22:06:38.497Z,2.53
2023-04-09T22:09:10.404Z,2.58
2023-04-09T22:11:46.750Z,2.33
2023-04-09T22:14:20.105Z,2.20
2023-04-09T22:16:58.472Z,2.30
2023-04-09T22:19:40.434Z,2.40
2023-04-09T22:22:22.392Z,2.55
2023-04-09T22:24:53.464Z,2.60
2023-04-09T22:27:42.866Z,2.65
2023-04-09T22:30:09.921Z,2.42
2023-04-09T22:32:38.779Z,2.30
2023-04-09T22:35:10.502Z,2.42
2023-04-09T22:37:40.053Z,2.40
2023-04-09T22:40:14.281Z,2.90
2023-04-09T22:42:46.871Z,2.63
2023-04-09T22:45:18.792Z,2.58
2023-04-09T22:47:55.522Z,2.40
2023-04-09T22:50:33.793Z,2.60
2023-04-09T22:53:03.796Z,2.55
2023-04-09T22:55:36.762Z,2.10
2023-04-09T22:58:12.499Z,2.25
2023-04-09T23:00:45.137Z,2.33
2023-04-09T23:03:12.249Z,2.30
2023-04-09T23:05:45.748Z,2.10
2023-04-09T23:11:17.930Z,2.78
2023-04-09T23:13:54.301Z,2.50
2023-04-09T23:16:21.863Z,2.30
2023-04-09T23:18:50.238Z,2.80
2023-04-09T23:21:21.647Z,2.28
2023-04-09T23:23:59.039Z,2.58
2023-04-09T23:26:39.869Z,2.10
2023-04-09T23:29:08.755Z,2.47
2023-04-09T23:31:42.889Z,2.42
2023-04-09T23:34:13.320Z,2.80
2023-04-09T23:36:43.456Z,2.40
2023-04-09T23:39:12.227Z,2.47
2023-04-09T23:42:19.245Z,2.42
2023-04-09T23:45:00.760Z,2.28
2023-04-09T23:47:58.320Z,2.72
2023-04-09T23:50:49.924Z,2.70
2023-04-09T23:53:17.199Z,2.45
2023-04-09T23:56:18.917Z,2.80
2023-04-09T23:58:51.631Z,2.75
